Hamilton, KS (66853)

11:04 PM CDT on September 15, 2014 (GMT -0500)
Toronto, KS | Change Station
CLOSE
Current Station
Personal Weather Station
Location: Toronto, KS
Elevation: 971 ft
Nearby Weather Stations

Elev 971 ft 37.80 °N, 95.95 °W | Updated 4 minutes ago

Overcast
Overcast
65.5 °F
Feels Like 65.5 °F
N
0.0
Wind Variable Wind from NNE
Gusts 4.0 mph

Today
High -- | Low -- °F
--% Chance of Precip.
Yesterday
High -- | Low -- °F
Precip. -- in
7:06 AM 7:32 PM
Waning Gibbous, 49% visible
Pressure 30.22 in
Visibility 10.0 miles
Clouds Mostly Cloudy 8500 ft
Dew Point 59 °F
Humidity 79%
Rainfall 0.00 in
Snow Depth Not available.
UV 0 out of 12
Pollen 7.10 out of 12
Air Quality Not available.
Flu Activity Not available.
METAR KEMP 160353Z AUTO 05010KT 10SM BKN085 14/11 A3023 RMK AO2 SLP233 T01440111

More Conditions Fewer Conditions

Pressure 30.22 in
Visibility 10.0 miles
Clouds Mostly Cloudy 8500 ft
Dew Point 59 °F
Humidity 79%
Rainfall 0.00 in
Snow Depth Not available.
UV 0 out of 12
Pollen 7.10 out of 12
Air Quality Not available.
Flu Activity Not available.
METAR KEMP 160353Z AUTO 05010KT 10SM BKN085 14/11 A3023 RMK AO2 SLP233 T01440111

More Conditions Fewer Conditions

10-Day Weather Forecast

Almanac

Astronomy

Sep. 15, 2014 Rise Set
Actual Time 7:06 AM CDT 7:32 PM CDT
Civil Twilight 6:40 AM CDT 7:59 PM CDT
Nautical Twilight 6:09 AM CDT 8:29 PM CDT
Astronomical Twilight 5:37 AM CDT 9:01 PM CDT
Moon No Moon Rise 2:01 PM CDT (9/15)
Length of Visible Light 13h 18m
Length of Day
12h 26m
Tomorrow will be 2m 25s shorter.
Waning Gibbous, 49% of the Moon is Illuminated
Sep 16
Waning Gibbous
Sep 24
New
Oct 1
First Quarter
Oct 8
Full
Oct 15
Last Quarter

Today's Extremes

State Highs State Lows

Community

WunderPhotos

Upload Photos

1,753,695 photos uploaded!

Nearby

Snow Depth

Station Depth Elevation
No new snow has been reported.

Earthquake Activity

City Distance Mag. Time & Date
Enid, Oklahoma 135 miles 3.1 8:27 AM CDT
2014-09-15
Cherokee, Oklahoma 137 miles 3.1 4:21 AM CDT
2014-09-15
Enid, Oklahoma 134 miles 3.6 7:01 AM CDT
2014-09-14
Perry, Oklahoma 138 miles 3.3 11:10 PM CDT
2014-09-13
Minimum magnitude displayed is 2.5.

Coastal Water Temperatures

Place Temperature
No Stations Reporting

Nearby Weather Stations